Latest Weather Observations for Ceduna

IDS60801

Issued at 10:01 pm CST Saturday 29 August 2015 (issued every 30 minutes, with the page automatically refreshed every 10 minutes)

About weather observations | Map of weather stations | Latest weather observations for SA | Other Formats
Station Details ID: 018012 Name: CEDUNA AMO Lat: -32.13 Lon: 133.70 Height: 15.3 m
Data from the previous 72 hours. | See also: Recent months at Ceduna
Date/Time
CST
Temp
°C
App
Temp
°C
Dew
Point
Rel
Hum
%
Delta-T
°C
Wind Press
QNH
hPa
Press
MSL
hPa
Rain
since 9 am
mm
Dir
 
Spd
km/h
Gust
km/h
Spd
kts
Gust
kts
29/10:00pm 6.8 4.1 5.6 92 0.5 ESE 9 11 5 6 1024.7 1024.7 0.0
29/09:30pm 8.2 4.7 7.0 92 0.6 ESE 15 17 8 9 1024.7 1024.7 0.0
29/09:00pm 9.3 5.9 7.6 89 0.8 ESE 15 17 8 9 1024.7 1024.7 0.0
29/08:30pm 10.6 7.0 8.4 86 1.1 SE 17 20 9 11 1024.6 1024.6 0.0
29/08:00pm 10.9 7.7 8.5 85 1.2 SE 15 19 8 10 1024.2 1024.2 0.0
29/07:30pm 11.9 8.4 8.6 80 1.6 SSE 17 22 9 12 1024.0 1024.0 0.0
29/07:00pm 12.7 9.2 10.1 84 1.3 SSE 19 24 10 13 1023.5 1023.5 0.0
29/06:30pm 12.9 9.3 9.9 82 1.5 SSE 19 24 10 13 1023.4 1023.4 0.0
29/06:00pm 13.9 10.0 9.3 74 2.3 SSE 20 28 11 15 1023.2 1023.2 0.0
29/05:30pm 15.3 10.7 9.7 69 2.9 SSE 24 33 13 18 1023.0 1023.0 0.0
29/05:00pm 16.4 10.7 6.8 53 4.7 SSE 26 33 14 18 1023.0 1023.0 0.0
29/04:30pm 17.2 12.0 7.3 52 4.9 SSE 24 32 13 17 1022.9 1022.9 0.0
29/04:00pm 18.0 13.1 6.8 48 5.6 S 22 30 12 16 1022.9 1022.9 0.0
29/03:30pm 17.9 13.4 7.0 49 5.4 SE 20 32 11 17 1023.0 1023.0 0.0
29/03:00pm 19.3 16.0 4.3 37 7.1 NNE 11 17 6 9 1023.3 1023.3 0.0
29/02:30pm 18.9 15.6 2.3 33 7.6 E 9 22 5 12 1023.6 1023.6 0.0
29/02:00pm 19.1 14.7 2.9 34 7.5 E 15 22 8 12 1024.0 1024.0 0.0
29/01:30pm 18.7 14.6 2.1 33 7.5 NE 13 24 7 13 1024.3 1024.3 0.0
29/01:00pm 18.7 14.3 2.9 35 7.3 NE 15 22 8 12 1024.9 1024.9 0.0
29/12:30pm 19.0 14.5 4.4 38 6.9 NE 17 33 9 18 1025.4 1025.4 0.0
29/12:00pm 18.1 14.5 3.2 37 6.9 NNE 11 20 6 11 1026.0 1026.0 0.0
29/11:30am 18.0 14.3 4.2 40 6.5 NNE 13 22 7 12 1026.3 1026.3 0.0
29/11:00am 17.3 13.1 3.9 41 6.3 NE 15 20 8 11 1026.5 1026.5 0.0
29/10:30am 16.2 12.4 7.7 57 4.2 NE 17 19 9 10 1026.8 1026.8 0.0
29/10:00am 15.3 11.9 9.2 67 3.1 NE 17 22 9 12 1026.8 1026.8 0.0
29/09:30am 13.7 10.0 9.4 75 2.2 NE 19 24 10 13 1026.9 1026.9 0.0
29/09:00am 11.7 7.7 8.2 79 1.7 NE 19 24 10 13 1026.8 1026.8 0.0
29/08:30am 9.8 6.0 7.6 86 1.0 NE 17 20 9 11 1026.6 1026.6 0.0
29/08:00am 7.2 3.4 6.0 92 0.5 ENE 15 17 8 9 1026.3 1026.3 0.0
29/07:30am 5.1 1.0 4.2 94 0.4 ENE 15 17 8 9 1026.0 1026.0 0.0
29/07:00am 4.1 -0.2 3.4 95 0.3 NE 15 19 8 10 1025.8 1025.8 0.0
29/06:30am 4.1 -0.6 3.4 95 0.3 ENE 17 19 9 10 1025.5 1025.5 0.0
29/06:00am 4.3 -0.3 3.6 95 0.3 ENE 17 20 9 11 1025.2 1025.2 0.0
29/05:30am 4.0 -0.6 3.6 97 0.2 ENE 17 19 9 10 1025.1 1025.1 0.0
29/05:00am 3.5 -0.4 3.2 98 0.1 ENE 13 17 7 9 1025.1 1025.1 0.0
29/04:30am 3.7 -0.6 3.4 98 0.1 ENE 15 17 8 9 1025.1 1025.1 0.0
29/04:00am 3.8 0.0 3.7 99 0.0 ENE 13 15 7 8 1025.1 1025.1 0.0
29/03:30am 2.5 -1.2 2.2 98 0.1 E 11 13 6 7 1025.4 1025.4 0.0
29/03:00am 2.8 -0.8 2.7 99 0.0 E 11 13 6 7 1025.6 1025.6 0.0
29/02:30am 2.8 -0.9 2.4 97 0.2 ENE 11 11 6 6 1025.9 1025.9 0.0
29/02:00am 3.5 -0.1 3.1 97 0.2 ENE 11 13 6 7 1026.3 1026.3 0.0
29/01:30am 4.6 1.2 4.2 97 0.2 ENE 11 13 6 7 1026.6 1026.6 0.0
29/01:00am 3.8 0.2 3.1 95 0.3 E 11 13 6 7 1026.6 1026.6 0.0
29/12:30am 5.3 2.4 4.6 95 0.3 ENE 9 13 5 7 1026.7 1026.7 0.0
29/12:00am 6.7 3.7 6.1 96 0.3 NE 11 13 6 7 1026.8 1026.8 0.0
 
Date/Time
CST
Temp
°C
App
Temp
°C
Dew
Point
Rel
Hum
%
Delta-T
°C
Wind Press
QNH
hPa
Press
MSL
hPa
Rain
since 9 am
mm
Dir
 
Spd
km/h
Gust
km/h
Spd
kts
Gust
kts
28/11:30pm 7.6 4.4 7.0 96 0.3 ESE 13 15 7 8 1026.8 1026.8 0.0
28/11:00pm 8.8 5.5 7.9 94 0.4 SE 15 17 8 9 1026.9 1026.9 0.0
28/10:30pm 9.8 6.3 8.6 92 0.6 SE 17 20 9 11 1027.1 1027.1 0.0
28/10:00pm 10.4 6.5 8.8 90 0.8 SE 19 22 10 12 1027.2 1027.2 0.0
28/09:30pm 10.8 6.8 8.9 88 0.9 SE 20 26 11 14 1027.1 1027.1 0.0
28/09:00pm 11.1 7.8 9.4 89 0.8 SE 17 24 9 13 1026.9 1026.9 0.0
28/08:30pm 11.6 7.9 9.5 87 1.1 SE 19 24 10 13 1026.5 1026.5 0.0
28/08:00pm 11.7 8.0 9.6 87 1.1 SSE 19 24 10 13 1026.2 1026.2 0.0
28/07:30pm 12.1 8.3 9.8 86 1.2 SSE 20 28 11 15 1026.0 1026.0 0.0
28/07:00pm 12.2 8.3 9.6 84 1.3 SSE 20 28 11 15 1025.8 1025.8 0.0
28/06:30pm 12.5 8.1 9.1 80 1.7 SSE 22 28 12 15 1025.7 1025.7 0.0
28/06:00pm 13.2 8.5 9.3 77 2.0 S 24 30 13 16 1025.3 1025.3 0.0
28/05:30pm 13.9 8.7 8.9 72 2.5 S 26 32 14 17 1025.1 1025.1 0.0
28/05:00pm 14.8 9.6 8.7 67 3.1 S 26 33 14 18 1025.0 1025.0 0.0
28/04:30pm 15.5 10.1 7.8 60 3.8 S 26 32 14 17 1025.0 1025.0 0.0
28/04:00pm 15.4 10.0 8.2 62 3.6 S 26 32 14 17 1025.0 1025.0 0.0
28/03:30pm 15.5 10.4 7.8 60 3.8 S 24 30 13 16 1025.1 1025.1 0.0
28/03:00pm 16.4 12.3 7.9 57 4.3 S 19 24 10 13 1025.6 1025.6 0.0
28/02:30pm 17.0 13.9 7.1 52 4.9 SE 13 19 7 10 1025.7 1025.7 0.0
28/02:00pm 17.0 13.3 6.2 49 5.3 ESE 15 24 8 13 1025.9 1025.9 0.0
28/01:30pm 16.9 14.2 7.3 53 4.8 ESE 11 24 6 13 1026.3 1026.3 0.0
28/01:00pm 16.1 12.8 6.3 52 4.8 SE 13 20 7 11 1026.9 1026.9 0.0
28/12:30pm 15.6 12.5 7.1 57 4.2 E 13 20 7 11 1027.5 1027.5 0.0
28/12:00pm 15.4 11.5 7.2 58 4.0 E 17 24 9 13 1028.1 1028.1 0.0
28/11:30am 15.3 11.7 8.5 64 3.4 E 17 24 9 13 1028.5 1028.5 0.0
28/11:00am 14.4 11.0 9.2 71 2.7 E 17 22 9 12 1028.8 1028.8 0.0
28/10:30am 12.5 9.4 8.8 78 1.8 E 15 20 8 11 1029.1 1029.1 0.0
28/10:00am 11.0 7.8 8.4 84 1.3 E 15 20 8 11 1029.3 1029.3 0.0
28/09:30am 10.4 7.5 8.2 86 1.1 E 13 17 7 9 1029.5 1029.5 0.0
28/09:00am 10.0 5.9 7.9 87 1.0 E 19 24 10 13 1029.5 1029.5 0.0
28/08:30am 8.5 5.0 7.4 93 0.5 ENE 15 19 8 10 1029.4 1029.4 0.0
28/08:00am 6.2 3.2 5.9 98 0.1 ENE 11 13 6 7 1029.3 1029.3 0.0
28/07:30am 4.0 1.3 3.9 99 0.0 ENE 7 9 4 5 1029.1 1029.1 0.0
28/07:00am 3.3 -0.3 3.2 99 0.0 ENE 11 13 6 7 1028.8 1028.8 0.0
28/06:30am 3.0 -0.6 2.7 98 0.1 E 11 13 6 7 1028.7 1028.7 0.0
28/06:00am 2.7 -1.7 2.6 99 0.0 E 15 15 8 8 1028.6 1028.6 0.0
28/05:30am 1.9 -1.9 1.5 97 0.2 E 11 11 6 6 1028.4 1028.4 0.0
28/05:00am 3.2 -0.4 2.8 97 0.2 ENE 11 13 6 7 1028.4 1028.4 0.0
28/04:30am 4.0 0.1 3.6 97 0.2 ENE 13 17 7 9 1028.2 1028.2 0.0
28/04:00am 5.2 1.1 4.5 95 0.3 ENE 15 17 8 9 1028.2 1028.2 0.0
28/03:30am 6.5 2.3 5.8 95 0.3 E 17 20 9 11 1028.3 1028.3 0.0
28/03:00am 6.9 2.4 6.3 96 0.3 E 19 22 10 12 1028.4 1028.4 0.0
28/02:30am 6.3 3.3 6.0 98 0.1 ESE 11 15 6 8 1028.6 1028.6 0.0
28/02:00am 5.5 2.3 4.9 96 0.3 E 11 13 6 7 1029.0 1029.0 0.0
28/01:30am 6.4 3.0 6.1 98 0.1 ESE 13 17 7 9 1029.1 1029.1 0.0
28/01:00am 5.5 2.3 5.2 98 0.1 E 11 13 6 7 1029.2 1029.2 0.0
28/12:30am 4.8 1.9 4.4 97 0.2 E 9 9 5 5 1029.2 1029.2 0.0
28/12:00am 5.2 2.3 4.6 96 0.3 E 9 11 5 6 1029.1 1029.1 0.0
 
Date/Time
CST
Temp
°C
App
Temp
°C
Dew
Point
Rel
Hum
%
Delta-T
°C
Wind Press
QNH
hPa
Press
MSL
hPa
Rain
since 9 am
mm
Dir
 
Spd
km/h
Gust
km/h
Spd
kts
Gust
kts
27/11:30pm 5.3 1.6 4.4 94 0.4 ESE 13 13 7 7 1029.2 1029.2 0.0
27/11:00pm 7.5 3.8 6.4 93 0.5 SE 15 17 8 9 1029.2 1029.2 0.0
27/10:30pm 7.8 3.7 6.4 91 0.6 SE 17 19 9 10 1029.1 1029.1 0.0
27/10:00pm 8.1 4.1 6.6 90 0.7 SE 17 19 9 10 1029.0 1029.0 0.0
27/09:30pm 7.7 4.1 6.6 93 0.5 SE 15 17 8 9 1028.9 1028.9 0.0
27/09:00pm 6.7 3.5 5.2 90 0.7 SE 11 13 6 7 1028.7 1028.7 0.0
27/08:30pm 8.8 5.2 6.8 87 0.9 SE 15 17 8 9 1028.6 1028.6 0.0
27/08:00pm 9.5 5.5 6.8 83 1.3 SE 17 19 9 10 1028.5 1028.5 0.0
27/07:30pm 9.1 5.8 6.2 82 1.3 SSE 13 15 7 8 1028.3 1028.3 0.0
27/07:00pm 9.4 5.7 6.3 81 1.4 SSE 15 17 8 9 1028.0 1028.0 0.0
27/06:30pm 10.8 7.2 6.6 75 2.0 SSE 15 17 8 9 1027.9 1027.9 0.0
27/06:00pm 12.3 8.7 6.8 69 2.6 SSE 15 20 8 11 1027.8 1027.8 0.0
27/05:30pm 13.6 9.0 6.5 62 3.4 SSE 20 26 11 14 1027.6 1027.6 0.0
27/05:00pm 14.1 9.2 6.9 62 3.5 S 22 30 12 16 1027.4 1027.4 0.0
27/04:30pm 14.2 9.1 7.7 65 3.2 SSE 24 30 13 16 1027.2 1027.2 0.0
27/04:00pm 14.2 9.3 8.6 69 2.8 SSE 24 32 13 17 1027.1 1027.1 0.0
27/03:30pm 14.7 9.6 7.5 62 3.5 SSE 24 28 13 15 1027.2 1027.2 0.0
27/03:00pm 15.2 10.5 7.7 61 3.7 S 22 30 12 16 1027.2 1027.2 0.0
27/02:30pm 15.2 11.1 7.7 61 3.7 S 19 24 10 13 1027.3 1027.3 0.0
27/02:00pm 14.8 10.0 7.4 61 3.7 S 22 26 12 14 1027.5 1027.5 0.0
27/01:30pm 15.1 11.0 8.6 65 3.3 S 20 26 11 14 1027.8 1027.8 0.0
27/01:00pm 14.9 10.6 7.9 63 3.5 SSW 20 28 11 15 1027.9 1027.9 0.0
27/12:30pm 14.5 11.2 8.2 66 3.1 SW 15 20 8 11 1028.3 1028.3 0.0
27/12:00pm 14.6 12.2 8.5 67 3.1 SSW 11 17 6 9 1028.8 1028.8 0.0
27/11:30am 14.0 12.7 7.8 66 3.0 SSW 4 13 2 7 1029.0 1029.0 0.0
27/11:00am 13.3 11.1 8.0 70 2.6 SSW 9 13 5 7 1028.9 1028.9 0.0
27/10:30am 13.1 11.1 8.6 74 2.2 E 9 13 5 7 1029.2 1029.2 0.0
27/10:00am 12.9 11.4 8.6 75 2.1 E 6 13 3 7 1029.3 1029.3 0.0
27/09:30am 11.7 10.0 8.2 79 1.7 NE 7 9 4 5 1029.1 1029.1 0.0
27/09:00am 9.6 9.0 7.5 87 1.0 CALM 0 0 0 0 1028.9 1028.9 0.0
27/08:30am 6.8 4.8 6.1 95 0.3 NNW 6 7 3 4 1028.5 1028.5 0.0
27/08:00am 4.7 2.3 4.1 96 0.3 NE 6 6 3 3 1028.2 1028.2 0.0
27/07:30am 1.6 -1.3 1.3 98 0.1 N 6 6 3 3 1028.0 1028.0 0.0
27/07:00am 0.4 -1.6 0.0 97 0.1 CALM 0 0 0 0 1027.6 1027.6 0.0
27/06:30am 0.6 -1.3 0.3 98 0.1 CALM 0 4 0 2 1027.3 1027.3 0.0
27/06:00am 0.6 -2.5 0.2 97 0.1 WNW 6 7 3 4 1026.9 1026.9 0.0
27/05:30am 1.5 -1.6 1.2 98 0.1 N 7 9 4 5 1026.7 1026.7 0.0
27/05:00am 1.1 -1.9 0.7 97 0.1 N 6 7 3 4 1026.4 1026.4 0.0
27/04:30am 1.1 -0.8 0.7 97 0.1 CALM 0 0 0 0 1026.1 1026.1 0.0
27/04:00am 2.2 -0.6 1.8 97 0.2 N 6 7 3 4 1026.1 1026.1 0.0
27/03:30am 1.5 -0.3 0.9 96 0.2 CALM 0 0 0 0 1026.3 1026.3 0.0
27/03:00am 2.1 0.4 1.7 97 0.2 CALM 0 0 0 0 1026.3 1026.3 0.0
27/02:30am 2.7 0.3 2.3 97 0.2 N 4 6 2 3 1026.4 1026.4 0.0
27/02:00am 2.7 -0.7 2.1 96 0.2 N 9 9 5 5 1026.5 1026.5 0.0
27/01:30am 3.6 1.0 3.0 96 0.2 NNE 6 7 3 4 1026.6 1026.6 0.0
27/01:00am 2.9 0.1 2.2 95 0.3 NNE 6 6 3 3 1026.7 1026.7 0.0
27/12:30am 3.5 0.8 2.8 95 0.3 NNE 6 9 3 5 1026.7 1026.7 0.0
27/12:00am 3.5 0.8 2.6 94 0.4 N 6 7 3 4 1026.8 1026.8 0.0
 
Date/Time
CST
Temp
°C
App
Temp
°C
Dew
Point
Rel
Hum
%
Delta-T
°C
Wind Press
QNH
hPa
Press
MSL
hPa
Rain
since 9 am
mm
Dir
 
Spd
km/h
Gust
km/h
Spd
kts
Gust
kts
26/11:30pm 3.7 0.8 2.8 94 0.4 NE 7 7 4 4 1026.9 1026.9 0.0
26/11:00pm 5.0 2.6 4.3 95 0.3 NE 6 7 3 4 1026.9 1026.9 0.0
26/10:30pm 5.2 2.8 4.3 94 0.4 NNE 6 9 3 5 1026.9 1026.9 0.0

Other Formats:

Comma delimited format used in spreadsheet applications
http://www.bom.gov.au/fwo/IDS60801/IDS60801.94653.axf

JavaScript Object Notation format (JSON) in row-major order
http://www.bom.gov.au/fwo/IDS60801/IDS60801.94653.json